AirNav   Bose Proflight and A20 aviation headeets
 
 276 users online  

94OR Umpqua RV Park Fly in Airport
Elkton, Oregon, USA

GOING TO ELKTON?


FAA INFORMATION EFFECTIVE 31 JANUARY 2019

Location

FAA Identifier: 94OR
Lat/Long: 43-31-50.4180N / 123-32-56.3360W
43-31.840300N / 123-32.938933W
43.5306717 / -123.5489822
(estimated)
Elevation: 230 ft. / 70 m (estimated)
Variation: 18E (1995)
From city: 8 miles S of ELKTON, OR
Time zone: UTC -8 (UTC -7 during Daylight Saving Time)
Zip code: 97462

Airport Operations

Airport use: Private use. Permission required prior to landing
Activation date: 02/1996
Control tower: no
ARTCC: SEATTLE CENTER
FSS: MC MINNVILLE FLIGHT SERVICE STATION
Attendance: MON-FRI 24 HOURS/DAY, SAT-SUN/ON CALL/
Wind indicator: yes
Segmented circle: no

Airport Communications

WX ASOS at RBG (19 nm SE): 135.475 (541-673-1483)

Nearby radio navigation aids

VOR radial/distance  VOR name  Freq  Var
RBGr318/22.6ROSEBURG VOR/DME108.2020E
OTHr061/27.8NORTH BEND VOR/DME112.1015E
EUGr187/38.1EUGENE VORTAC112.9015E

 
NDB name  Hdg/Dist  Freq  Var  ID
ROSEBURG315/19.640020ERBG .-. -... --.

Airport Services

Runway Information

Runway 10/28

Dimensions: 2350 x 50 ft. / 716 x 15 m
Surface: turf, in good condition
RUNWAY 10  RUNWAY 28
Traffic pattern: leftleft
Obstructions: 30 ft. pline50 ft. trees, 1200 ft. from runway

Airport Ownership and Management from official FAA records

Ownership: Privately-owned
Owner: WAYNE HARRIS
16844 STATE HIGHWAY 138 WEST
OAKLAND, OR 97462
Phone 541-459-2665
Manager: WAYNE HARRIS
16844 STATE HIGHWAY 138 WEST
OAKLAND, OR 97462
Phone 541-459-2665
UMPQUARV@GMAIL.COM

Additional Remarks

CTC WAYNE HARRIS PRIOR TO ANY OWNER NAME CHANGES.

Instrument Procedures

There are no published instrument procedures at 94OR.

Some nearby airports with instrument procedures:

KRBG - Roseburg Regional Airport (19 nm SE)
KOTH - Southwest Oregon Regional Airport (31 nm W)
77S - Hobby Field Airport (34 nm NE)
KEUG - Mahlon Sweet Field Airport (39 nm N)
KCVO - Corvallis Municipal Airport (59 nm N)
 
Loc | Ops | Rwys | IFR | FBO | Links
Com | Nav | Svcs | Stats | Notes
Area around 94OR (Umpqua RV Park Fly in Airport)
 
Road maps at: MapQuest Bing Google
 
Aerial photo
WARNING: Photo may not be current or correct
Aerial photo of 94OR (Umpqua RV Park Fly in Airport)
Do you have a better or more recent aerial photo of Umpqua RV Park Fly in Airport that you would like to share? If so, please send us your photo.

 
Sectional chart

 
Airport distance calculator
Flying to Umpqua RV Park Fly in Airport? Find the distance to fly.

From to 94OR

Sunrise and sunset
Times for 23-Feb-2019
 Local
(UTC-8)
 Zulu
(UTC)
Morning civil twilight06:3214:32
Sunrise07:0115:01
Sunset17:5401:54
Evening civil twilight18:2302:23

Current date and time
Zulu (UTC)  23-Feb-2019 09:50:32
Local (UTC-8)  23-Feb-2019 01:50:32
 
METAR
KRBG 
20nm SE 
230853Z AUTO 17004KT 10SM -RA FEW036 OVC045 07/02 A3016 RMK AO2 RAB48 SLP216 P0000 60000 T00670022 53001
KOTH 
31nm W 
230915Z AUTO 27013KT 7SM -RA SCT007 BKN013 OVC026 08/08 A3017 RMK AO2 P0002
K6S2 
36nm NW 
230935Z AUTO 00000KT 7SM BKN013 BKN023 OVC050 06/06 A3015 RMK AO2
KEUG 
39nm N 
230932Z AUTO 00000KT 6SM -RA BR SCT005 BKN016 OVC031 06/04 A3013 RMK AO2 P0002 T00560044
TAF
KRBG 
20nm SE 
230536Z 2306/2406 20003KT P6SM BKN035 OVC050 FM230900 00000KT 3SM -RA BR OVC020 FM231500 VRB03KT 5SM -RA BR SCT010 BKN025 OVC035
NOTAMs
Click for the latest NOTAMs
NOTAMs are issued by the DoD/FAA and will open in a separate window not controlled by AirNav.

 

 
 

Would you like to see your business listed on this page?

 If your business provides an interesting product or service to pilots, flight crews, aircraft, or users of the Umpqua RV Park Fly in Airport, you should consider listing it here.  To start the listing process, click on the button below
 
Add a business
 

Other Pages about Umpqua RV Park Fly in Airport

Update a link
 
Copyright © AirNav, LLC. All rights reserved. Privacy Policy  Contact